Columbia Heights, Illinois
Current Conditions -  °F | °C
As of 4:35 PM on Monday 20 Oct 2014 (Local Time) from KGBG Reporting Station
Clear Clear  
Wind Chill: 65°   Ceiling: Unl
Heat Index: 65°   Visibility: 10mi
Dew Point: 44°   Wind: 17mph
Humidity: 46%   Direction: 310°NW
Pressure: 29.94"   Gusts: 21mph
Location:  40.945°N, 90.3106°W
Report Text: KGBG 202135Z AUTO 31015G18KT 10SM CLR 19/07 A2994 RMK AO2 T01860066
Loading
Personal Weather Stations






























Interactive Weather Map
Tropical Storm Tracking
New forecast layout! Learn more

10-Day Weather Forecast

Advertisements
Track Severe Weather on mobile